Time;durP1;ratioP1;P1;durP2;ratioP2;P2;SDS_P1;SDS_P2;PMS_P1;PMS_P2;Temp;Humidity;BMP_temperature;BMP_pressure;BME280_temperature;BME280_humidity;BME280_pressure;Samples;Min_cycle;Max_cycle;Signal;HPM_P1;HPM_P2
2023/07/10 00:01:29;;;;;;;;;13.60;13.00;;;;;23.41;100.00;99148.41;6284591;27;96334;-64
2023/07/10 00:04:32;;;;;;;;;12.00;12.00;;;;;23.43;100.00;99148.13;6277299;27;96318;-65
2023/07/10 00:07:37;;;;;;;;;11.25;11.25;;;;;23.41;100.00;99142.91;6258312;27;98330;-65
2023/07/10 00:10:40;;;;;;;;;15.00;14.00;;;;;23.31;100.00;99141.13;6270644;27;96912;-64
2023/07/10 00:13:43;;;;;;;;;16.00;14.40;;;;;23.30;100.00;99145.03;6265031;27;96833;-62
2023/07/10 00:16:46;;;;;;;;;13.00;13.00;;;;;23.27;100.00;99153.84;6262719;27;98428;-64
2023/07/10 00:19:50;;;;;;;;;13.00;11.80;;;;;23.25;100.00;99136.03;6264252;27;96448;-64
2023/07/10 00:22:55;;;;;;;;;11.50;11.00;;;;;23.05;100.00;99114.31;6269724;27;96785;-64
2023/07/10 00:25:58;;;;;;;;;14.20;14.20;;;;;23.16;100.00;99135.91;6267210;27;96658;-65
2023/07/10 00:29:15;;;;;;;;;12.75;12.75;;;;;23.06;100.00;99136.03;6247154;27;98294;-65
2023/07/10 00:32:18;;;;;;;;;13.00;12.00;;;;;22.96;100.00;99138.13;6276022;27;96899;-65
2023/07/10 00:35:23;;;;;;;;;10.50;10.25;;;;;22.87;100.00;99137.97;6247486;27;98577;-64
2023/07/10 00:38:30;;;;;;;;;11.00;10.00;;;;;22.85;100.00;99146.50;6263366;27;97493;-65
2023/07/10 00:41:37;;;;;;;;;12.25;11.50;;;;;22.86;100.00;99137.16;6268908;27;96490;-65
2023/07/10 00:44:47;;;;;;;;;13.00;11.00;;;;;22.85;100.00;99135.50;6288985;27;98165;-65
2023/07/10 00:48:01;;;;;;;;;13.00;12.00;;;;;22.63;100.00;99121.47;6265310;27;96639;-64
2023/07/10 00:51:13;;;;;;;;;10.80;9.80;;;;;22.72;100.00;99140.91;6264835;27;97532;-65
2023/07/10 00:54:25;;;;;;;;;13.00;13.00;;;;;22.68;100.00;99139.81;6278609;27;96502;-65
2023/07/10 00:57:34;;;;;;;;;12.50;12.00;;;;;22.65;100.00;99138.47;6266682;27;97046;-65
2023/07/10 01:00:37;;;;;;;;;11.00;10.00;;;;;22.54;100.00;99136.16;6261072;27;96815;-64
2023/07/10 01:03:41;;;;;;;;;11.00;11.00;;;;;22.48;100.00;99135.38;6267252;27;98374;-65
2023/07/10 01:06:45;;;;;;;;;12.00;12.00;;;;;22.35;100.00;99120.44;6238926;27;96654;-64
2023/07/10 01:09:53;;;;;;;;;12.60;12.00;;;;;22.43;100.00;99133.53;6275475;27;96474;-64
2023/07/10 01:12:56;;;;;;;;;12.50;12.50;;;;;22.41;100.00;99135.75;6271727;27;96281;-65
2023/07/10 01:15:59;;;;;;;;;10.00;10.00;;;;;22.34;100.00;99134.47;6244347;27;98656;-65
2023/07/10 01:19:06;;;;;;;;;10.20;8.80;;;;;22.32;100.00;99128.47;6249619;27;96651;-64
2023/07/10 01:22:11;;;;;;;;;12.60;12.60;;;;;22.32;100.00;99131.22;6272793;27;96452;-64
2023/07/10 01:25:15;;;;;;;;;10.80;10.00;;;;;22.19;100.00;99107.16;6237551;27;97148;-64
2023/07/10 01:28:21;;;;;;;;;12.00;11.00;;;;;22.27;100.00;99123.03;6272408;27;96472;-64
2023/07/10 01:31:26;;;;;;;;;12.00;11.00;;;;;22.26;100.00;99121.38;6245776;27;97143;-64
2023/07/10 01:34:35;;;;;;;;;12.00;10.00;;;;;22.20;100.00;99117.06;6286233;27;96894;-65
2023/07/10 01:37:39;;;;;;;;;9.80;9.00;;;;;22.15;100.00;99117.09;6259766;27;97024;-64
2023/07/10 01:40:49;;;;;;;;;10.00;9.60;;;;;22.07;100.00;99118.56;6262513;27;96971;-65
2023/07/10 01:43:52;;;;;;;;;11.00;10.00;;;;;21.97;100.00;99107.69;6268129;27;96450;-64
2023/07/10 01:46:57;;;;;;;;;12.50;12.00;;;;;21.89;100.00;99117.34;6269292;27;99340;-65
2023/07/10 01:50:00;;;;;;;;;9.20;9.20;;;;;21.88;100.00;99112.97;6283316;27;96948;-64
2023/07/10 01:53:06;;;;;;;;;12.00;11.00;;;;;21.73;100.00;99074.72;6243534;27;98485;-65
2023/07/10 01:56:09;;;;;;;;;12.00;12.00;;;;;21.88;100.00;99117.66;6228528;27;97606;-65
2023/07/10 01:59:13;;;;;;;;;10.00;9.50;;;;;21.85;100.00;99110.78;6227080;27;96621;-65
2023/07/10 02:02:16;;;;;;;;;12.00;11.60;;;;;21.80;100.00;99110.84;6267518;27;96383;-65
2023/07/10 02:05:20;;;;;;;;;12.00;12.00;;;;;21.81;100.00;99103.44;6287581;27;96335;-64
2023/07/10 02:08:25;;;;;;;;;10.50;10.50;;;;;21.71;100.00;99093.38;6252053;27;96771;-65
2023/07/10 02:11:28;;;;;;;;;11.00;10.00;;;;;21.76;100.00;99107.03;6243464;27;96986;-65
2023/07/10 02:14:31;;;;;;;;;11.00;11.00;;;;;21.74;100.00;99100.22;6243951;27;96364;-65
2023/07/10 02:17:34;;;;;;;;;14.00;14.00;;;;;21.67;100.00;99099.72;6226726;27;98518;-64
2023/07/10 02:20:39;;;;;;;;;13.00;12.00;;;;;21.63;100.00;99096.75;6252236;27;96530;-64
2023/07/10 02:23:47;;;;;;;;;11.80;11.20;;;;;21.59;100.00;99096.53;6261055;27;96244;-64
2023/07/10 02:26:51;;;;;;;;;12.00;11.00;;;;;21.59;100.00;99096.53;6264337;27;96401;-64
2023/07/10 02:29:54;;;;;;;;;12.00;10.75;;;;;21.53;100.00;99091.34;6272768;27;96513;-65
2023/07/10 02:32:57;;;;;;;;;10.00;8.20;;;;;21.48;100.00;99089.47;6272393;27;100077;-64
2023/07/10 02:36:00;;;;;;;;;11.60;11.60;;;;;21.49;100.00;99090.31;6273626;27;97478;-65
2023/07/10 02:39:05;;;;;;;;;10.00;10.00;;;;;21.46;100.00;99086.19;6291552;27;96378;-65
2023/07/10 02:42:12;;;;;;;;;13.00;12.00;;;;;21.46;100.00;99093.59;6275254;27;96310;-65
2023/07/10 02:45:18;;;;;;;;;14.40;14.00;;;;;21.45;100.00;99087.28;6273343;27;97187;-65
2023/07/10 02:48:22;;;;;;;;;10.25;10.00;;;;;21.44;100.00;99093.91;6290565;27;96856;-65
2023/07/10 02:51:25;;;;;;;;;14.00;13.00;;;;;21.46;100.00;99086.19;6279562;27;96966;-65
2023/07/10 02:54:30;;;;;;;;;10.20;10.00;;;;;21.42;100.00;99089.81;6273083;27;96398;-65
2023/07/10 02:57:33;;;;;;;;;13.00;12.40;;;;;21.41;100.00;99091.72;6291080;27;97549;-65
2023/07/10 03:00:36;;;;;;;;;12.00;12.00;;;;;21.38;100.00;99086.81;6287148;27;96384;-64
2023/07/10 03:03:45;;;;;;;;;12.80;12.40;;;;;21.36;100.00;99094.50;6254662;27;97117;-65
2023/07/10 03:06:49;;;;;;;;;14.00;13.40;;;;;21.38;100.00;99089.56;6271592;27;96475;-65
2023/07/10 03:09:53;;;;;;;;;15.00;14.00;;;;;21.41;100.00;99088.16;6271407;27;97572;-65
2023/07/10 03:12:57;;;;;;;;;13.60;12.60;;;;;21.45;100.00;99089.25;6265811;27;96382;-65
2023/07/10 03:16:01;;;;;;;;;11.00;11.00;;;;;21.46;100.00;99091.69;6229989;27;98482;-65
2023/07/10 03:19:05;;;;;;;;;15.00;12.60;;;;;21.52;100.00;99092.47;6265340;27;96347;-65
2023/07/10 03:22:08;;;;;;;;;10.00;10.00;;;;;21.56;100.00;99088.84;6285391;27;96653;-65
2023/07/10 03:25:12;;;;;;;;;9.60;9.00;;;;;21.63;100.00;99088.53;6263286;27;96838;-65
2023/07/10 03:28:16;;;;;;;;;14.00;12.00;;;;;21.55;100.00;99081.72;6271997;27;96606;-64
2023/07/10 03:31:19;;;;;;;;;12.50;12.00;;;;;21.67;100.00;99094.25;6247604;27;96746;-64
2023/07/10 03:34:22;;;;;;;;;13.00;13.00;;;;;21.71;100.00;99095.28;6262550;27;96617;-64
2023/07/10 03:37:25;;;;;;;;;12.00;12.00;;;;;21.79;100.00;99101.00;6262293;27;96689;-64
2023/07/10 03:40:30;;;;;;;;;13.00;12.00;;;;;21.85;100.00;99105.31;6282332;27;96545;-65
2023/07/10 03:43:33;;;;;;;;;13.00;12.00;;;;;21.95;100.00;99104.41;6266675;27;98530;-65
2023/07/10 03:46:36;;;;;;;;;11.60;11.60;;;;;22.07;100.00;99112.25;6277566;27;96604;-65
2023/07/10 03:49:39;;;;;;;;;13.50;13.00;;;;;22.14;100.00;99112.75;6251991;27;98371;-65
2023/07/10 03:52:43;;;;;;;;;16.00;15.00;;;;;22.19;100.00;99118.16;6236427;27;96651;-65
2023/07/10 03:55:51;;;;;;;;;13.00;13.00;;;;;22.14;100.00;99119.03;6249657;27;98457;-63
2023/07/10 03:58:54;;;;;;;;;13.00;13.00;;;;;22.13;100.00;99116.59;6232136;27;96666;-64
2023/07/10 04:01:57;;;;;;;;;14.00;14.00;;;;;22.09;100.00;99110.84;6264470;27;96255;-65
2023/07/10 04:05:01;;;;;;;;;11.60;11.00;;;;;22.13;100.00;99111.09;6229390;27;96427;-64
2023/07/10 04:08:04;;;;;;;;;12.25;11.00;;;;;22.24;100.00;99110.69;6269835;27;96659;-65
2023/07/10 04:11:12;;;;;;;;;14.00;13.00;;;;;22.38;100.00;99103.38;6246388;27;96720;-64
2023/07/10 04:14:15;;;;;;;;;14.00;13.00;;;;;22.52;100.00;99097.19;6286576;27;96446;-65
2023/07/10 04:17:18;;;;;;;;;13.60;12.00;;;;;22.65;100.00;99097.25;6271694;27;96834;-65
2023/07/10 04:20:21;;;;;;;;;11.20;10.60;;;;;22.71;100.00;99092.56;6255835;27;99687;-65
2023/07/10 04:23:25;;;;;;;;;13.20;12.00;;;;;22.67;100.00;99089.56;6270093;27;96962;-65
2023/07/10 04:26:32;;;;;;;;;14.00;12.50;;;;;22.68;100.00;99091.16;6254697;27;96359;-65
2023/07/10 04:29:35;;;;;;;;;12.00;11.80;;;;;22.63;100.00;99060.19;6264475;27;96883;-65
2023/07/10 04:32:38;;;;;;;;;13.80;13.20;;;;;22.88;100.00;99076.34;6252799;27;97130;-63
2023/07/10 04:35:42;;;;;;;;;14.00;13.00;;;;;23.10;100.00;99103.25;6263918;27;96369;-65
2023/07/10 04:38:46;;;;;;;;;13.00;13.00;;;;;23.18;100.00;99095.13;6263272;27;96358;-64
2023/07/10 04:41:51;;;;;;;;;13.20;13.20;;;;;23.36;100.00;99090.72;6243865;27;99124;-64
2023/07/10 04:44:54;;;;;;;;;15.60;15.00;;;;;23.51;100.00;99092.41;6244483;27;98440;-64
2023/07/10 04:47:57;;;;;;;;;12.50;12.00;;;;;23.63;100.00;99090.03;6263470;27;96282;-65
2023/07/10 04:51:03;;;;;;;;;14.00;11.00;;;;;23.82;100.00;99090.78;6246343;27;97557;-65
2023/07/10 04:54:06;;;;;;;;;12.00;11.20;;;;;24.01;100.00;99097.03;6247069;27;98497;-65
2023/07/10 04:57:10;;;;;;;;;13.00;12.00;;;;;24.23;100.00;99103.81;6269544;27;97709;-65
2023/07/10 05:00:14;;;;;;;;;13.75;13.75;;;;;24.39;100.00;99088.59;6257110;27;97387;-65
2023/07/10 05:03:18;;;;;;;;;16.40;16.00;;;;;24.56;100.00;99086.84;6249060;27;96711;-65
2023/07/10 05:06:21;;;;;;;;;14.00;13.40;;;;;24.71;100.00;99096.72;6252523;27;96803;-64
2023/07/10 05:09:24;;;;;;;;;17.00;16.00;;;;;24.87;100.00;99103.56;6271647;27;96535;-65
2023/07/10 05:12:31;;;;;;;;;15.00;13.00;;;;;25.00;100.00;99099.13;6275672;27;96606;-64
2023/07/10 05:15:36;;;;;;;;;17.00;15.00;;;;;25.19;100.00;99099.78;6272773;27;96314;-65
2023/07/10 05:18:39;;;;;;;;;15.00;15.00;;;;;25.34;100.00;99098.59;6273013;27;96543;-64
2023/07/10 05:21:42;;;;;;;;;17.00;16.00;;;;;25.44;100.00;99112.97;6259562;27;97161;-65
2023/07/10 05:24:45;;;;;;;;;14.75;14.75;;;;;25.55;100.00;99112.75;6233524;27;98462;-65
2023/07/10 05:27:50;;;;;;;;;14.40;14.40;;;;;25.59;100.00;99111.00;6251018;27;96650;-64
2023/07/10 05:30:54;;;;;;;;;13.00;13.00;;;;;25.75;100.00;99106.72;6261729;27;96430;-65
2023/07/10 05:33:57;;;;;;;;;13.40;12.00;;;;;25.86;100.00;99117.16;6244696;27;97638;-64
2023/07/10 05:37:00;;;;;;;;;14.60;13.60;;;;;26.01;100.00;99118.72;6277834;27;96620;-64
2023/07/10 05:40:04;;;;;;;;;13.00;12.00;;;;;26.18;100.00;99116.03;6269391;27;97104;-64
2023/07/10 05:43:09;;;;;;;;;14.00;14.00;;;;;26.35;100.00;99101.47;6278237;27;96767;-65
2023/07/10 05:46:13;;;;;;;;;14.00;13.00;;;;;26.53;100.00;99103.19;6275036;27;96637;-65
2023/07/10 05:49:16;;;;;;;;;15.00;13.00;;;;;26.70;100.00;99108.75;6257322;27;96296;-65
2023/07/10 05:52:19;;;;;;;;;15.00;14.00;;;;;26.88;100.00;99106.84;6263569;27;96836;-64
2023/07/10 05:55:23;;;;;;;;;15.40;14.40;;;;;27.04;100.00;99121.84;6275977;27;97092;-65
2023/07/10 05:58:32;;;;;;;;;12.00;12.00;;;;;27.20;100.00;99124.13;6279878;27;96294;-65
2023/07/10 06:01:35;;;;;;;;;11.80;11.20;;;;;27.35;100.00;99124.47;6287138;27;97123;-65
2023/07/10 06:04:38;;;;;;;;;12.60;11.60;;;;;27.51;100.00;99124.81;6260743;27;96568;-65
2023/07/10 06:07:41;;;;;;;;;12.00;12.00;;;;;27.68;100.00;99121.19;6264786;27;96975;-65
2023/07/10 06:10:46;;;;;;;;;13.50;13.50;;;;;27.83;100.00;99127.03;6280665;27;97614;-64
2023/07/10 06:13:51;;;;;;;;;13.00;12.00;;;;;28.00;100.00;99120.66;6284875;27;96405;-63
2023/07/10 06:16:54;;;;;;;;;12.60;12.20;;;;;28.16;100.00;99121.75;6260538;27;96709;-65
2023/07/10 06:19:57;;;;;;;;;13.80;12.80;;;;;28.27;97.34;99117.47;6249791;27;96868;-65
2023/07/10 06:23:00;;;;;;;;;17.00;15.00;;;;;28.42;100.00;99118.88;6241239;27;96700;-64
2023/07/10 06:26:04;;;;;;;;;13.50;13.00;;;;;28.60;98.03;99117.63;6275585;27;98425;-65
2023/07/10 06:29:09;;;;;;;;;12.00;12.00;;;;;28.73;95.05;99116.63;6251414;27;98235;-65
2023/07/10 06:32:12;;;;;;;;;14.00;13.00;;;;;28.78;91.68;99107.28;6257430;27;98542;-65
2023/07/10 06:35:15;;;;;;;;;13.00;12.00;;;;;28.89;91.30;99111.28;6244491;27;97268;-65
2023/07/10 06:38:19;;;;;;;;;14.00;13.75;;;;;29.00;95.53;99106.94;6282579;27;96269;-65
2023/07/10 06:41:22;;;;;;;;;12.20;12.00;;;;;29.19;91.25;99100.91;6257681;27;97267;-64
2023/07/10 06:44:27;;;;;;;;;11.00;11.00;;;;;29.31;91.88;99106.59;6247969;27;96699;-65
2023/07/10 06:47:32;;;;;;;;;11.80;11.00;;;;;29.33;84.12;99109.00;6282643;27;96469;-65
2023/07/10 06:50:35;;;;;;;;;12.00;12.00;;;;;29.37;86.65;99110.75;6275041;27;96323;-65
2023/07/10 06:53:38;;;;;;;;;13.00;12.00;;;;;29.47;84.80;99099.22;6266204;27;98512;-65
2023/07/10 06:56:41;;;;;;;;;13.00;13.00;;;;;29.47;84.03;99096.44;6257403;27;96634;-65
2023/07/10 06:59:46;;;;;;;;;12.40;12.00;;;;;29.71;85.69;99104.09;6265081;27;97207;-64
2023/07/10 07:02:49;;;;;;;;;11.80;10.80;;;;;29.87;83.69;99113.38;6269205;27;97595;-64
2023/07/10 07:05:53;;;;;;;;;11.60;11.00;;;;;30.02;79.92;99096.06;6260048;27;96371;-65
2023/07/10 07:08:57;;;;;;;;;11.75;11.00;;;;;30.32;77.56;99095.88;6273423;27;98024;-66
2023/07/10 07:12:00;;;;;;;;;12.00;12.00;;;;;30.50;79.86;99102.84;6248993;27;96691;-65
2023/07/10 07:15:05;;;;;;;;;11.00;10.75;;;;;30.69;74.03;99096.72;6271589;27;97587;-66
2023/07/10 07:18:08;;;;;;;;;11.00;10.00;;;;;30.64;70.65;99094.16;6251508;27;96959;-65
2023/07/10 07:21:13;;;;;;;;;12.20;12.00;;;;;30.68;70.18;99086.72;6272375;27;97388;-66
2023/07/10 07:24:16;;;;;;;;;12.20;12.00;;;;;30.77;73.71;99088.22;6280950;27;96454;-65
2023/07/10 07:27:19;;;;;;;;;11.60;11.60;;;;;31.00;74.62;99094.09;6264280;27;96344;-65
2023/07/10 07:30:24;;;;;;;;;11.00;10.00;;;;;31.06;64.06;99084.38;6256880;27;98457;-65
2023/07/10 07:33:27;;;;;;;;;11.00;10.00;;;;;31.22;69.28;99082.47;6237441;27;98370;-66
2023/07/10 07:36:34;;;;;;;;;8.60;8.00;;;;;31.22;68.56;99067.72;6285008;27;97967;-66
2023/07/10 07:39:37;;;;;;;;;10.00;10.00;;;;;31.53;69.35;99080.91;6264283;27;98584;-66
2023/07/10 07:42:41;;;;;;;;;12.00;9.25;;;;;31.60;61.63;99081.97;6280182;27;96465;-65
2023/07/10 07:45:52;;;;;;;;;10.00;10.00;;;;;31.58;59.77;99073.16;6253561;27;98443;-65
2023/07/10 07:48:56;;;;;;;;;11.00;11.00;;;;;31.68;67.85;99061.47;6243349;27;96842;-66
2023/07/10 07:51:59;;;;;;;;;11.00;10.25;;;;;32.12;67.39;99069.81;6255730;27;96275;-66
2023/07/10 07:55:03;;;;;;;;;11.00;10.75;;;;;32.43;63.64;99077.38;6275551;27;96551;-65
2023/07/10 07:58:06;;;;;;;;;10.00;9.00;;;;;32.63;65.05;99051.16;6270901;27;96512;-66
2023/07/10 08:01:11;;;;;;;;;12.00;11.00;;;;;33.02;60.70;99079.97;6270944;27;96403;-66
2023/07/10 08:04:14;;;;;;;;;10.00;9.60;;;;;33.24;58.75;99068.09;6235820;27;99351;-66
2023/07/10 08:11:45;;;;;;;;;10.00;9.60;;;;;33.64;55.88;99078.06;6256573;27;96553;-65
2023/07/10 08:14:48;;;;;;;;;8.00;8.00;;;;;33.85;52.67;99072.91;6257545;27;97109;-65
2023/07/10 08:17:52;;;;;;;;;9.00;9.00;;;;;34.16;51.37;99080.25;6246610;27;96663;-65
2023/07/10 08:21:01;;;;;;;;;8.00;8.00;;;;;34.26;51.11;99074.84;6274600;27;96813;-66
2023/07/10 08:24:05;;;;;;;;;8.00;8.00;;;;;34.38;44.60;99065.47;6247258;27;96906;-65
2023/07/10 08:27:08;;;;;;;;;10.00;9.75;;;;;34.40;46.96;99068.69;6264776;27;96635;-65
2023/07/10 08:30:11;;;;;;;;;8.80;8.20;;;;;34.50;49.17;99070.88;6262576;27;96718;-65
2023/07/10 08:33:16;;;;;;;;;8.60;7.00;;;;;34.66;43.56;99062.28;6245163;27;96845;-66
2023/07/10 08:36:19;;;;;;;;;7.40;7.40;;;;;34.92;45.00;99069.91;6262110;27;96427;-66
2023/07/10 08:39:23;;;;;;;;;6.00;6.00;;;;;34.81;41.33;99069.75;6261477;27;99494;-65
2023/07/10 08:42:31;;;;;;;;;5.60;5.00;;;;;34.87;43.24;99065.44;6282757;27;96972;-66
2023/07/10 08:45:37;;;;;;;;;7.40;6.60;;;;;34.98;43.00;99040.38;6289583;27;97054;-66
2023/07/10 08:48:49;;;;;;;;;7.00;6.60;;;;;35.17;40.74;99054.25;6242141;27;97937;-66
2023/07/10 08:51:58;;;;;;;;;7.50;7.00;;;;;35.16;40.45;99053.41;6264347;27;96637;-66
2023/07/10 08:55:01;;;;;;;;;6.00;5.80;;;;;35.46;41.63;99044.19;6263758;27;96524;-66
2023/07/10 08:58:06;;;;;;;;;8.00;7.00;;;;;35.06;37.41;99054.09;6268124;27;96745;-66
2023/07/10 09:01:19;;;;;;;;;7.00;6.00;;;;;35.29;40.44;99055.97;6270589;27;96372;-65
2023/07/10 09:04:25;;;;;;;;;6.60;5.00;;;;;35.43;39.35;99053.38;6288525;27;96793;-66
2023/07/10 09:07:30;;;;;;;;;6.40;6.00;;;;;35.69;39.44;99049.66;6256322;27;96874;-65
2023/07/10 09:10:41;;;;;;;;;7.00;6.00;;;;;35.62;34.41;99039.97;6269452;27;98042;-66
2023/07/10 09:13:50;;;;;;;;;5.00;4.00;;;;;35.85;35.48;99033.41;6289019;27;96703;-66
2023/07/10 09:16:55;;;;;;;;;5.00;5.00;;;;;36.22;36.21;99039.75;6262310;27;96792;-66
2023/07/10 09:20:04;;;;;;;;;6.20;6.00;;;;;36.44;32.32;99038.75;6283058;27;96901;-65
2023/07/10 09:23:19;;;;;;;;;4.00;4.00;;;;;36.77;35.99;99039.75;6286624;27;96560;-66
2023/07/10 09:26:28;;;;;;;;;5.00;5.00;;;;;37.23;34.14;99046.47;6265415;27;97223;-65
2023/07/10 09:29:37;;;;;;;;;4.75;4.00;;;;;37.59;31.85;99047.38;6244222;27;98495;-66
2023/07/10 09:32:40;;;;;;;;;4.00;4.00;;;;;37.66;28.79;99038.16;6258651;27;97623;-66
2023/07/10 09:35:45;;;;;;;;;4.00;3.40;;;;;37.59;27.96;99047.38;6267501;27;97478;-66
2023/07/10 09:38:51;;;;;;;;;4.00;4.00;;;;;37.32;27.58;99046.09;6288986;27;96941;-65
2023/07/10 09:41:58;;;;;;;;;4.00;4.00;;;;;37.12;28.99;99039.97;6288298;27;96961;-66
2023/07/10 09:45:01;;;;;;;;;6.00;6.00;;;;;37.14;31.75;99040.38;6245510;27;98484;-66
2023/07/10 09:48:13;;;;;;;;;5.00;5.00;;;;;37.29;31.34;99025.16;6244494;27;97118;-65
2023/07/10 09:51:18;;;;;;;;;6.00;5.80;;;;;37.55;29.87;99035.34;6262766;27;96496;-66
2023/07/10 09:54:22;;;;;;;;;6.00;5.80;;;;;37.64;28.07;99032.13;6261808;27;96886;-66
2023/07/10 09:57:25;;;;;;;;;6.75;6.75;;;;;37.76;27.82;99031.75;6262701;27;96528;-66
2023/07/10 10:00:29;;;;;;;;;6.60;6.00;;;;;37.80;30.66;99020.50;6262455;27;96577;-65
2023/07/10 10:03:41;;;;;;;;;5.00;5.00;;;;;37.90;27.43;99034.59;6262758;27;97014;-66
2023/07/10 10:06:56;;;;;;;;;5.25;5.25;;;;;37.78;28.96;99029.34;6262823;27;97152;-65
2023/07/10 10:10:04;;;;;;;;;7.00;6.00;;;;;37.59;26.90;99010.81;6252339;27;97827;-66
2023/07/10 10:13:24;;;;;;;;;6.00;6.00;;;;;37.64;29.15;99015.25;6256773;27;97217;-66
2023/07/10 10:16:35;;;;;;;;;5.00;4.00;;;;;37.06;28.30;99027.47;6277503;27;96766;-65
2023/07/10 10:19:44;;;;;;;;;5.60;5.60;;;;;36.66;27.25;99025.66;6262657;27;96921;-65
2023/07/10 10:22:49;;;;;;;;;6.00;6.00;;;;;36.38;28.65;99025.44;6262369;27;96419;-65
2023/07/10 10:25:53;;;;;;;;;7.60;7.20;;;;;36.76;29.80;99022.09;6256745;27;96722;-66
2023/07/10 10:29:10;;;;;;;;;6.00;6.00;;;;;37.27;28.83;99016.34;6267786;27;96557;-66
2023/07/10 10:32:24;;;;;;;;;5.40;5.40;;;;;37.59;27.68;99016.44;6244768;27;96638;-65
2023/07/10 10:35:41;;;;;;;;;5.00;4.40;;;;;37.70;25.84;99020.09;6260247;27;97298;-66
2023/07/10 10:38:53;;;;;;;;;6.40;6.00;;;;;37.67;25.38;99011.66;6253141;27;97022;-66
2023/07/10 10:42:01;;;;;;;;;6.20;6.00;;;;;37.60;25.73;99004.00;6283642;27;97103;-66
2023/07/10 10:45:15;;;;;;;;;8.00;7.00;;;;;37.76;28.17;99011.25;6267359;27;96811;-66
2023/07/10 10:48:26;;;;;;;;;6.75;6.75;;;;;38.01;28.28;99012.13;6259926;27;96557;-66
2023/07/10 10:51:31;;;;;;;;;6.00;6.00;;;;;38.29;27.71;99014.91;6265951;27;96275;-66
2023/07/10 10:54:43;;;;;;;;;6.00;6.00;;;;;38.32;25.89;99000.00;6265815;27;96711;-66
2023/07/10 10:57:53;;;;;;;;;7.00;7.00;;;;;37.82;25.07;99007.66;6266335;27;97022;-65
2023/07/10 11:01:17;;;;;;;;;5.00;5.00;;;;;37.35;27.31;99000.28;6265869;27;96458;-66
2023/07/10 11:04:25;;;;;;;;;6.60;6.00;;;;;37.23;27.86;98995.03;6271318;27;96979;-66
2023/07/10 11:07:29;;;;;;;;;5.00;5.00;;;;;37.33;27.13;98990.66;6290346;27;96462;-65
2023/07/10 11:10:38;;;;;;;;;6.00;6.00;;;;;37.40;26.23;98987.84;6285708;27;96739;-63
2023/07/10 11:13:41;;;;;;;;;6.00;5.40;;;;;37.24;27.39;98986.19;6271659;27;98424;-66
2023/07/10 11:16:46;;;;;;;;;5.80;5.80;;;;;37.44;28.57;98980.22;6276784;27;96384;-66
2023/07/10 11:19:50;;;;;;;;;5.00;5.00;;;;;37.56;27.58;98975.06;6244667;27;97965;-65
2023/07/10 11:22:55;;;;;;;;;6.80;5.80;;;;;38.02;25.19;98982.75;6251618;27;100986;-65
2023/07/10 11:26:03;;;;;;;;;6.00;5.00;;;;;38.34;24.42;98977.88;6250732;27;96642;-66
2023/07/10 11:29:19;;;;;;;;;6.50;5.75;;;;;38.45;24.04;98967.44;6250438;27;98475;-66
2023/07/10 11:32:25;;;;;;;;;6.00;5.40;;;;;38.14;22.04;98965.44;6245976;27;96677;-66
2023/07/10 11:35:30;;;;;;;;;8.00;7.00;;;;;37.97;22.54;98969.06;6265151;27;97406;-66
2023/07/10 11:38:35;;;;;;;;;5.50;5.00;;;;;37.74;23.66;98963.81;6246732;27;96581;-66
2023/07/10 11:42:13;;;;;;;;;5.00;5.00;;;;;37.91;25.45;98971.47;6265031;27;97681;-66
2023/07/10 11:45:17;;;;;;;;;5.00;5.00;;;;;37.86;24.82;98971.06;6228707;27;97029;-65
2023/07/10 11:48:37;;;;;;;;;6.00;6.00;;;;;37.82;24.49;98961.81;6264951;27;96931;-66
2023/07/10 11:51:41;;;;;;;;;5.25;5.25;;;;;37.94;25.61;98973.47;6237243;27;98546;-64
2023/07/10 11:55:01;;;;;;;;;6.00;6.00;;;;;37.91;25.38;98963.03;6266066;27;97369;-64
2023/07/10 11:58:23;;;;;;;;;6.50;6.00;;;;;37.92;25.37;98955.38;6245128;27;98473;-66
2023/07/10 12:01:27;;;;;;;;;8.20;6.80;;;;;38.07;23.94;98959.84;6264643;27;97516;-66
2023/07/10 12:04:31;;;;;;;;;10.00;9.00;;;;;37.98;24.10;98954.56;6264927;27;96579;-66
2023/07/10 12:07:34;;;;;;;;;6.50;6.00;;;;;37.90;22.76;98958.59;6264690;27;96355;-66
2023/07/10 12:10:40;;;;;;;;;5.00;5.00;;;;;37.56;23.66;98946.94;6264205;27;96470;-66
2023/07/10 12:13:45;;;;;;;;;8.00;7.00;;;;;37.68;26.81;98949.34;6254518;27;98412;-65
2023/07/10 12:16:53;;;;;;;;;6.25;5.75;;;;;37.80;25.13;98934.06;6275847;27;97499;-63
2023/07/10 12:20:29;;;;;;;;;6.00;5.00;;;;;37.69;24.60;98944.50;6264601;27;97156;-64
2023/07/10 12:23:32;;;;;;;;;6.00;6.00;;;;;37.49;25.36;98930.00;6269804;27;96443;-64
2023/07/10 12:26:36;;;;;;;;;5.00;4.00;;;;;37.27;25.30;98928.38;6271106;27;97798;-64
2023/07/10 12:30:12;;;;;;;;;8.00;7.00;;;;;37.18;25.41;98925.94;6258220;27;97924;-64
2023/07/10 12:33:32;;;;;;;;;7.00;7.00;;;;;37.15;24.98;98915.50;6255042;27;98661;-64
2023/07/10 12:36:38;;;;;;;;;6.00;6.00;;;;;36.88;25.95;98905.75;6236746;27;99490;-66
2023/07/10 12:39:42;;;;;;;;;8.00;7.00;;;;;36.85;27.61;98912.97;6277847;27;96985;-67
2023/07/10 12:42:47;;;;;;;;;6.40;6.40;;;;;36.92;27.80;98908.56;6265191;27;97629;-68
2023/07/10 12:45:57;;;;;;;;;8.00;8.00;;;;;36.75;27.45;98896.09;6251215;27;98344;-63
2023/07/10 12:49:02;;;;;;;;;8.00;8.00;;;;;36.57;28.18;98895.16;6269946;27;97273;-68
2023/07/10 12:52:07;;;;;;;;;8.00;8.00;;;;;36.36;28.97;98882.63;6256828;27;97429;-66
2023/07/10 12:55:17;;;;;;;;;7.00;7.00;;;;;36.29;28.96;98885.41;6281543;27;96860;-67
2023/07/10 12:58:22;;;;;;;;;9.25;8.25;;;;;36.13;28.83;98884.91;6271357;27;96835;-64
2023/07/10 13:01:32;;;;;;;;;6.00;5.25;;;;;35.98;28.75;98884.00;6280924;27;96971;-67
2023/07/10 13:04:40;;;;;;;;;9.00;9.00;;;;;35.89;30.05;98879.91;6243819;27;98810;-68
2023/07/10 13:07:43;;;;;;;;;7.00;7.00;;;;;35.77;32.81;98874.63;6244164;27;98518;-67
2023/07/10 13:10:47;;;;;;;;;7.50;7.50;;;;;35.88;31.59;98878.31;6244763;27;96941;-67
2023/07/10 13:13:50;;;;;;;;;9.00;8.00;;;;;35.68;31.71;98849.72;6245390;27;96534;-68
2023/07/10 13:17:15;;;;;;;;;6.00;5.00;;;;;35.47;31.44;98878.38;6263534;27;96963;-68
2023/07/10 13:20:21;;;;;;;;;8.00;8.00;;;;;35.28;32.94;98881.41;6263716;27;96936;-67
2023/07/10 13:23:24;;;;;;;;;7.00;7.00;;;;;35.02;31.60;98873.09;6265763;27;97533;-67
2023/07/10 13:26:27;;;;;;;;;8.00;7.60;;;;;34.73;32.35;98843.97;6268914;27;96945;-67
2023/07/10 13:29:30;;;;;;;;;8.00;8.00;;;;;34.76;33.97;98868.41;6250701;27;98927;-67
2023/07/10 13:32:37;;;;;;;;;7.00;7.00;;;;;34.69;32.07;98859.94;6261429;27;97057;-67
2023/07/10 13:35:41;;;;;;;;;8.25;8.00;;;;;34.85;31.87;98859.69;6255065;27;96821;-67
2023/07/10 13:38:45;;;;;;;;;8.00;8.00;;;;;34.96;33.08;98855.81;6257218;27;98432;-67
2023/07/10 13:41:50;;;;;;;;;7.00;6.20;;;;;35.05;32.82;98859.13;6272055;27;96677;-67
2023/07/10 13:44:54;;;;;;;;;7.60;7.60;;;;;35.12;31.20;98847.19;6276183;27;96249;-67
2023/07/10 13:47:59;;;;;;;;;7.80;7.00;;;;;35.19;31.95;98836.84;6255335;27;97540;-67
2023/07/10 13:51:02;;;;;;;;;8.00;8.00;;;;;35.15;31.75;98844.41;6254927;27;98536;-68
2023/07/10 13:54:06;;;;;;;;;9.00;8.60;;;;;35.05;30.74;98835.91;6254332;27;97246;-67
2023/07/10 13:57:16;;;;;;;;;9.20;9.00;;;;;34.87;31.39;98841.31;6255497;27;97094;-67
2023/07/10 14:00:20;;;;;;;;;11.33;10.67;;;;;34.78;31.85;98838.84;6272842;27;97527;-68
2023/07/10 14:03:26;;;;;;;;;9.40;9.00;;;;;34.75;32.43;98827.59;6260529;27;96926;-67
2023/07/10 14:06:33;;;;;;;;;9.00;8.00;;;;;34.72;32.92;98825.56;6254231;27;97099;-67
2023/07/10 14:09:36;;;;;;;;;10.00;10.00;;;;;34.82;32.21;98816.47;6261556;27;96798;-67
2023/07/10 14:12:39;;;;;;;;;9.00;8.00;;;;;34.86;31.81;98802.50;6261372;27;97102;-67
2023/07/10 14:15:44;;;;;;;;;10.00;9.40;;;;;34.90;32.27;98806.13;6254667;27;96496;-67
2023/07/10 14:18:49;;;;;;;;;10.00;10.00;;;;;34.92;33.25;98800.94;6272623;27;97090;-68
2023/07/10 14:21:53;;;;;;;;;11.00;10.00;;;;;35.01;32.50;98805.03;6258660;27;97999;-67
2023/07/10 14:24:56;;;;;;;;;8.75;8.75;;;;;34.95;32.64;98805.78;6255776;27;96920;-67